sensor_id;sensor_type;location;lat;lon;timestamp;P1;durP1;ratioP1;P2;durP2;ratioP2
32934;SDS011;19292;51.532;7.650;2023-03-08T00:01:21;2.22;;;1.50;;
32934;SDS011;19292;51.532;7.650;2023-03-08T00:03:50;4.68;;;2.92;;
32934;SDS011;19292;51.532;7.650;2023-03-08T00:06:17;2.92;;;2.72;;
32934;SDS011;19292;51.532;7.650;2023-03-08T00:08:42;2.53;;;2.33;;
32934;SDS011;19292;51.532;7.650;2023-03-08T00:11:08;4.63;;;4.22;;
32934;SDS011;19292;51.532;7.650;2023-03-08T00:13:35;4.97;;;3.63;;
32934;SDS011;19292;51.532;7.650;2023-03-08T00:16:01;5.50;;;4.00;;
32934;SDS011;19292;51.532;7.650;2023-03-08T00:18:27;2.42;;;2.28;;
32934;SDS011;19292;51.532;7.650;2023-03-08T00:21:03;5.97;;;2.67;;
32934;SDS011;19292;51.532;7.650;2023-03-08T00:23:30;2.20;;;1.98;;
32934;SDS011;19292;51.532;7.650;2023-03-08T00:25:56;4.63;;;2.88;;
32934;SDS011;19292;51.532;7.650;2023-03-08T00:28:22;3.97;;;3.47;;
32934;SDS011;19292;51.532;7.650;2023-03-08T00:30:54;1.92;;;1.77;;
32934;SDS011;19292;51.532;7.650;2023-03-08T00:33:20;3.53;;;3.05;;
32934;SDS011;19292;51.532;7.650;2023-03-08T00:35:53;2.10;;;2.00;;
32934;SDS011;19292;51.532;7.650;2023-03-08T00:38:39;3.08;;;2.95;;
32934;SDS011;19292;51.532;7.650;2023-03-08T00:41:04;3.00;;;2.80;;
32934;SDS011;19292;51.532;7.650;2023-03-08T00:43:29;2.13;;;1.98;;
32934;SDS011;19292;51.532;7.650;2023-03-08T00:45:55;2.47;;;2.30;;
32934;SDS011;19292;51.532;7.650;2023-03-08T00:48:20;3.13;;;2.85;;
32934;SDS011;19292;51.532;7.650;2023-03-08T00:50:46;1.55;;;1.50;;
32934;SDS011;19292;51.532;7.650;2023-03-08T00:53:11;3.97;;;3.72;;
32934;SDS011;19292;51.532;7.650;2023-03-08T00:55:36;4.03;;;3.03;;
32934;SDS011;19292;51.532;7.650;2023-03-08T00:58:02;3.63;;;2.78;;
32934;SDS011;19292;51.532;7.650;2023-03-08T01:00:28;4.78;;;2.72;;
32934;SDS011;19292;51.532;7.650;2023-03-08T01:02:54;1.77;;;1.67;;
32934;SDS011;19292;51.532;7.650;2023-03-08T01:05:20;2.38;;;2.25;;
32934;SDS011;19292;51.532;7.650;2023-03-08T01:07:45;2.97;;;2.80;;
32934;SDS011;19292;51.532;7.650;2023-03-08T01:10:10;4.63;;;3.47;;
32934;SDS011;19292;51.532;7.650;2023-03-08T01:12:36;2.55;;;2.25;;
32934;SDS011;19292;51.532;7.650;2023-03-08T01:15:02;3.90;;;3.60;;
32934;SDS011;19292;51.532;7.650;2023-03-08T01:17:28;4.10;;;3.80;;
32934;SDS011;19292;51.532;7.650;2023-03-08T01:19:53;5.00;;;2.75;;
32934;SDS011;19292;51.532;7.650;2023-03-08T01:22:18;3.85;;;3.58;;
32934;SDS011;19292;51.532;7.650;2023-03-08T01:24:44;3.33;;;3.13;;
32934;SDS011;19292;51.532;7.650;2023-03-08T01:27:10;2.75;;;2.15;;
32934;SDS011;19292;51.532;7.650;2023-03-08T01:29:36;2.83;;;2.72;;
32934;SDS011;19292;51.532;7.650;2023-03-08T01:32:01;3.30;;;3.00;;
32934;SDS011;19292;51.532;7.650;2023-03-08T01:34:27;1.88;;;1.80;;
32934;SDS011;19292;51.532;7.650;2023-03-08T01:36:52;1.70;;;1.70;;
32934;SDS011;19292;51.532;7.650;2023-03-08T01:39:17;4.60;;;4.25;;
32934;SDS011;19292;51.532;7.650;2023-03-08T01:41:43;3.30;;;2.63;;
32934;SDS011;19292;51.532;7.650;2023-03-08T01:44:14;2.33;;;2.22;;
32934;SDS011;19292;51.532;7.650;2023-03-08T01:46:41;3.25;;;3.03;;
32934;SDS011;19292;51.532;7.650;2023-03-08T01:49:07;2.25;;;2.17;;
32934;SDS011;19292;51.532;7.650;2023-03-08T01:54:09;3.53;;;3.33;;
32934;SDS011;19292;51.532;7.650;2023-03-08T01:56:38;4.55;;;4.25;;
32934;SDS011;19292;51.532;7.650;2023-03-08T01:59:05;4.65;;;3.45;;
32934;SDS011;19292;51.532;7.650;2023-03-08T02:01:30;3.75;;;2.95;;
32934;SDS011;19292;51.532;7.650;2023-03-08T02:03:57;1.75;;;1.70;;
32934;SDS011;19292;51.532;7.650;2023-03-08T02:06:23;3.03;;;1.80;;
32934;SDS011;19292;51.532;7.650;2023-03-08T02:08:48;2.83;;;2.63;;
32934;SDS011;19292;51.532;7.650;2023-03-08T02:11:14;3.55;;;3.25;;
32934;SDS011;19292;51.532;7.650;2023-03-08T02:13:41;2.50;;;2.33;;
32934;SDS011;19292;51.532;7.650;2023-03-08T02:16:07;1.90;;;1.80;;
32934;SDS011;19292;51.532;7.650;2023-03-08T02:18:34;5.40;;;3.45;;
32934;SDS011;19292;51.532;7.650;2023-03-08T02:20:59;3.17;;;2.97;;
32934;SDS011;19292;51.532;7.650;2023-03-08T02:23:25;1.98;;;1.88;;
32934;SDS011;19292;51.532;7.650;2023-03-08T02:25:52;3.22;;;2.90;;
32934;SDS011;19292;51.532;7.650;2023-03-08T02:28:19;2.28;;;2.15;;
32934;SDS011;19292;51.532;7.650;2023-03-08T02:30:46;2.15;;;2.05;;
32934;SDS011;19292;51.532;7.650;2023-03-08T02:33:12;3.15;;;2.85;;
32934;SDS011;19292;51.532;7.650;2023-03-08T02:35:37;2.33;;;2.17;;
32934;SDS011;19292;51.532;7.650;2023-03-08T02:38:06;4.00;;;3.67;;
32934;SDS011;19292;51.532;7.650;2023-03-08T02:40:32;3.03;;;2.58;;
32934;SDS011;19292;51.532;7.650;2023-03-08T02:42:57;2.10;;;2.00;;
32934;SDS011;19292;51.532;7.650;2023-03-08T02:45:22;2.20;;;2.05;;
32934;SDS011;19292;51.532;7.650;2023-03-08T02:47:48;4.10;;;2.70;;
32934;SDS011;19292;51.532;7.650;2023-03-08T02:50:13;2.33;;;2.22;;
32934;SDS011;19292;51.532;7.650;2023-03-08T02:52:39;2.58;;;2.45;;
32934;SDS011;19292;51.532;7.650;2023-03-08T02:55:04;2.50;;;2.40;;
32934;SDS011;19292;51.532;7.650;2023-03-08T02:57:30;2.42;;;2.33;;
32934;SDS011;19292;51.532;7.650;2023-03-08T02:59:56;1.95;;;1.85;;
32934;SDS011;19292;51.532;7.650;2023-03-08T03:02:21;2.65;;;2.45;;
32934;SDS011;19292;51.532;7.650;2023-03-08T03:04:46;4.30;;;2.92;;
32934;SDS011;19292;51.532;7.650;2023-03-08T03:07:11;2.47;;;2.38;;
32934;SDS011;19292;51.532;7.650;2023-03-08T03:09:37;3.08;;;2.78;;
32934;SDS011;19292;51.532;7.650;2023-03-08T03:12:02;3.70;;;2.65;;
32934;SDS011;19292;51.532;7.650;2023-03-08T03:14:28;3.42;;;3.20;;
32934;SDS011;19292;51.532;7.650;2023-03-08T03:16:53;2.97;;;2.33;;
32934;SDS011;19292;51.532;7.650;2023-03-08T03:19:19;4.43;;;3.25;;
32934;SDS011;19292;51.532;7.650;2023-03-08T03:21:44;5.30;;;4.75;;
32934;SDS011;19292;51.532;7.650;2023-03-08T03:24:09;2.47;;;2.38;;
32934;SDS011;19292;51.532;7.650;2023-03-08T03:26:36;2.05;;;1.95;;
32934;SDS011;19292;51.532;7.650;2023-03-08T03:29:01;3.50;;;3.20;;
32934;SDS011;19292;51.532;7.650;2023-03-08T03:31:26;4.32;;;3.95;;
32934;SDS011;19292;51.532;7.650;2023-03-08T03:33:52;2.88;;;2.75;;
32934;SDS011;19292;51.532;7.650;2023-03-08T03:36:19;1.77;;;1.73;;
32934;SDS011;19292;51.532;7.650;2023-03-08T03:38:45;2.08;;;1.98;;
32934;SDS011;19292;51.532;7.650;2023-03-08T03:41:13;2.90;;;2.72;;
32934;SDS011;19292;51.532;7.650;2023-03-08T03:46:09;2.92;;;2.65;;
32934;SDS011;19292;51.532;7.650;2023-03-08T03:48:36;2.10;;;2.00;;
32934;SDS011;19292;51.532;7.650;2023-03-08T03:51:02;1.98;;;1.85;;
32934;SDS011;19292;51.532;7.650;2023-03-08T03:53:29;3.13;;;2.92;;
32934;SDS011;19292;51.532;7.650;2023-03-08T03:56:00;2.55;;;2.38;;
32934;SDS011;19292;51.532;7.650;2023-03-08T03:58:33;1.75;;;1.65;;
32934;SDS011;19292;51.532;7.650;2023-03-08T04:00:58;2.42;;;2.03;;
32934;SDS011;19292;51.532;7.650;2023-03-08T04:03:24;3.28;;;3.00;;
32934;SDS011;19292;51.532;7.650;2023-03-08T04:05:49;2.45;;;2.33;;
32934;SDS011;19292;51.532;7.650;2023-03-08T04:08:14;4.47;;;4.18;;
32934;SDS011;19292;51.532;7.650;2023-03-08T04:10:40;1.90;;;1.80;;
32934;SDS011;19292;51.532;7.650;2023-03-08T04:13:05;2.72;;;2.63;;
32934;SDS011;19292;51.532;7.650;2023-03-08T04:15:30;2.40;;;2.20;;
32934;SDS011;19292;51.532;7.650;2023-03-08T04:17:56;4.82;;;4.53;;
32934;SDS011;19292;51.532;7.650;2023-03-08T04:20:22;2.50;;;2.40;;
32934;SDS011;19292;51.532;7.650;2023-03-08T04:22:47;2.60;;;2.30;;
32934;SDS011;19292;51.532;7.650;2023-03-08T04:25:13;4.00;;;1.85;;
32934;SDS011;19292;51.532;7.650;2023-03-08T04:27:38;3.13;;;2.78;;
32934;SDS011;19292;51.532;7.650;2023-03-08T04:30:04;4.03;;;2.80;;
32934;SDS011;19292;51.532;7.650;2023-03-08T04:32:30;4.93;;;4.63;;
32934;SDS011;19292;51.532;7.650;2023-03-08T04:34:56;3.28;;;2.97;;
32934;SDS011;19292;51.532;7.650;2023-03-08T04:37:21;4.95;;;2.63;;
32934;SDS011;19292;51.532;7.650;2023-03-08T04:39:47;2.25;;;2.10;;
32934;SDS011;19292;51.532;7.650;2023-03-08T04:42:12;2.70;;;2.50;;
32934;SDS011;19292;51.532;7.650;2023-03-08T04:44:37;5.07;;;2.88;;
32934;SDS011;19292;51.532;7.650;2023-03-08T04:47:03;2.50;;;2.38;;
32934;SDS011;19292;51.532;7.650;2023-03-08T04:49:28;2.30;;;2.15;;
32934;SDS011;19292;51.532;7.650;2023-03-08T04:51:54;1.83;;;1.80;;
32934;SDS011;19292;51.532;7.650;2023-03-08T04:54:19;1.30;;;1.30;;
32934;SDS011;19292;51.532;7.650;2023-03-08T04:56:44;1.70;;;1.63;;
32934;SDS011;19292;51.532;7.650;2023-03-08T04:59:10;1.73;;;1.63;;
32934;SDS011;19292;51.532;7.650;2023-03-08T05:01:35;3.28;;;2.97;;
32934;SDS011;19292;51.532;7.650;2023-03-08T05:04:00;2.45;;;2.35;;
32934;SDS011;19292;51.532;7.650;2023-03-08T05:06:26;2.42;;;2.33;;
32934;SDS011;19292;51.532;7.650;2023-03-08T05:08:52;2.58;;;2.20;;
32934;SDS011;19292;51.532;7.650;2023-03-08T05:11:23;1.95;;;1.85;;
32934;SDS011;19292;51.532;7.650;2023-03-08T05:13:51;2.15;;;2.03;;
32934;SDS011;19292;51.532;7.650;2023-03-08T05:16:18;2.13;;;1.98;;
32934;SDS011;19292;51.532;7.650;2023-03-08T05:18:43;1.83;;;1.73;;
32934;SDS011;19292;51.532;7.650;2023-03-08T05:21:10;3.30;;;3.08;;
32934;SDS011;19292;51.532;7.650;2023-03-08T05:23:37;3.90;;;1.88;;
32934;SDS011;19292;51.532;7.650;2023-03-08T05:26:03;3.08;;;2.90;;
32934;SDS011;19292;51.532;7.650;2023-03-08T05:28:30;2.00;;;1.90;;
32934;SDS011;19292;51.532;7.650;2023-03-08T05:31:07;1.38;;;1.38;;
32934;SDS011;19292;51.532;7.650;2023-03-08T05:33:35;3.58;;;1.85;;
32934;SDS011;19292;51.532;7.650;2023-03-08T05:36:00;1.70;;;1.60;;
32934;SDS011;19292;51.532;7.650;2023-03-08T05:38:26;4.90;;;2.47;;
32934;SDS011;19292;51.532;7.650;2023-03-08T05:40:51;1.48;;;1.45;;
32934;SDS011;19292;51.532;7.650;2023-03-08T05:43:17;1.98;;;1.77;;
32934;SDS011;19292;51.532;7.650;2023-03-08T05:45:43;2.17;;;2.08;;
32934;SDS011;19292;51.532;7.650;2023-03-08T05:48:18;2.30;;;2.17;;
32934;SDS011;19292;51.532;7.650;2023-03-08T05:50:44;1.58;;;1.58;;
32934;SDS011;19292;51.532;7.650;2023-03-08T05:53:09;2.78;;;2.55;;
32934;SDS011;19292;51.532;7.650;2023-03-08T05:55:34;3.05;;;1.77;;
32934;SDS011;19292;51.532;7.650;2023-03-08T05:58:00;2.15;;;2.05;;
32934;SDS011;19292;51.532;7.650;2023-03-08T06:00:25;2.83;;;2.63;;
32934;SDS011;19292;51.532;7.650;2023-03-08T06:02:50;4.10;;;3.20;;
32934;SDS011;19292;51.532;7.650;2023-03-08T06:05:16;1.75;;;1.67;;
32934;SDS011;19292;51.532;7.650;2023-03-08T06:07:41;2.50;;;2.22;;
32934;SDS011;19292;51.532;7.650;2023-03-08T06:10:08;2.47;;;2.35;;
32934;SDS011;19292;51.532;7.650;2023-03-08T06:12:33;2.53;;;2.38;;
32934;SDS011;19292;51.532;7.650;2023-03-08T06:14:59;3.05;;;2.85;;
32934;SDS011;19292;51.532;7.650;2023-03-08T06:17:24;1.77;;;1.67;;
32934;SDS011;19292;51.532;7.650;2023-03-08T06:19:49;2.45;;;2.25;;
32934;SDS011;19292;51.532;7.650;2023-03-08T06:22:15;2.63;;;2.42;;
32934;SDS011;19292;51.532;7.650;2023-03-08T06:24:41;2.45;;;2.25;;
32934;SDS011;19292;51.532;7.650;2023-03-08T06:27:06;3.38;;;3.13;;
32934;SDS011;19292;51.532;7.650;2023-03-08T06:29:31;2.90;;;2.72;;
32934;SDS011;19292;51.532;7.650;2023-03-08T06:31:57;2.08;;;1.98;;
32934;SDS011;19292;51.532;7.650;2023-03-08T06:34:22;4.07;;;2.60;;
32934;SDS011;19292;51.532;7.650;2023-03-08T06:36:47;2.00;;;1.90;;
32934;SDS011;19292;51.532;7.650;2023-03-08T06:39:13;1.67;;;1.58;;
32934;SDS011;19292;51.532;7.650;2023-03-08T06:41:38;2.22;;;2.13;;
32934;SDS011;19292;51.532;7.650;2023-03-08T06:44:03;1.55;;;1.45;;
32934;SDS011;19292;51.532;7.650;2023-03-08T06:46:29;3.53;;;1.85;;
32934;SDS011;19292;51.532;7.650;2023-03-08T06:48:54;4.47;;;2.35;;
32934;SDS011;19292;51.532;7.650;2023-03-08T06:51:20;1.10;;;1.10;;
32934;SDS011;19292;51.532;7.650;2023-03-08T06:53:45;0.90;;;0.90;;
32934;SDS011;19292;51.532;7.650;2023-03-08T06:56:12;1.15;;;1.15;;
32934;SDS011;19292;51.532;7.650;2023-03-08T06:58:39;1.25;;;1.25;;
32934;SDS011;19292;51.532;7.650;2023-03-08T07:01:05;1.73;;;1.63;;
32934;SDS011;19292;51.532;7.650;2023-03-08T07:03:31;1.73;;;1.63;;
32934;SDS011;19292;51.532;7.650;2023-03-08T07:05:57;1.80;;;1.70;;
32934;SDS011;19292;51.532;7.650;2023-03-08T07:08:27;1.55;;;1.45;;
32934;SDS011;19292;51.532;7.650;2023-03-08T07:10:52;0.90;;;0.90;;
32934;SDS011;19292;51.532;7.650;2023-03-08T07:13:18;0.73;;;0.73;;
32934;SDS011;19292;51.532;7.650;2023-03-08T07:15:44;3.00;;;2.80;;
32934;SDS011;19292;51.532;7.650;2023-03-08T07:18:09;1.45;;;1.45;;
32934;SDS011;19292;51.532;7.650;2023-03-08T07:20:34;1.20;;;1.05;;
32934;SDS011;19292;51.532;7.650;2023-03-08T07:23:00;0.95;;;0.95;;
32934;SDS011;19292;51.532;7.650;2023-03-08T07:25:26;1.15;;;0.98;;
32934;SDS011;19292;51.532;7.650;2023-03-08T07:27:52;1.10;;;1.10;;
32934;SDS011;19292;51.532;7.650;2023-03-08T07:30:17;1.10;;;1.10;;
32934;SDS011;19292;51.532;7.650;2023-03-08T07:32:42;1.63;;;1.52;;
32934;SDS011;19292;51.532;7.650;2023-03-08T07:35:09;2.33;;;2.22;;
32934;SDS011;19292;51.532;7.650;2023-03-08T07:37:35;1.42;;;1.33;;
32934;SDS011;19292;51.532;7.650;2023-03-08T07:40:01;1.08;;;1.08;;
32934;SDS011;19292;51.532;7.650;2023-03-08T07:42:28;1.10;;;1.10;;
32934;SDS011;19292;51.532;7.650;2023-03-08T07:44:53;0.93;;;0.93;;
32934;SDS011;19292;51.532;7.650;2023-03-08T07:47:19;1.58;;;1.50;;
32934;SDS011;19292;51.532;7.650;2023-03-08T07:49:45;1.15;;;1.15;;
32934;SDS011;19292;51.532;7.650;2023-03-08T07:52:10;1.08;;;1.08;;
32934;SDS011;19292;51.532;7.650;2023-03-08T07:54:35;1.50;;;0.90;;
32934;SDS011;19292;51.532;7.650;2023-03-08T07:57:01;1.17;;;1.17;;
32934;SDS011;19292;51.532;7.650;2023-03-08T07:59:27;0.73;;;0.73;;
32934;SDS011;19292;51.532;7.650;2023-03-08T08:01:52;0.98;;;0.98;;
32934;SDS011;19292;51.532;7.650;2023-03-08T08:04:17;1.38;;;1.38;;
32934;SDS011;19292;51.532;7.650;2023-03-08T08:06:43;0.70;;;0.70;;
32934;SDS011;19292;51.532;7.650;2023-03-08T08:09:09;0.70;;;0.70;;
32934;SDS011;19292;51.532;7.650;2023-03-08T08:11:36;1.25;;;1.25;;
32934;SDS011;19292;51.532;7.650;2023-03-08T08:14:03;10.88;;;1.27;;
32934;SDS011;19292;51.532;7.650;2023-03-08T08:16:29;1.33;;;1.30;;
32934;SDS011;19292;51.532;7.650;2023-03-08T08:18:54;1.55;;;1.45;;
32934;SDS011;19292;51.532;7.650;2023-03-08T08:21:19;0.95;;;0.95;;
32934;SDS011;19292;51.532;7.650;2023-03-08T08:23:45;0.65;;;0.65;;
32934;SDS011;19292;51.532;7.650;2023-03-08T08:26:11;1.10;;;1.10;;
32934;SDS011;19292;51.532;7.650;2023-03-08T08:28:39;0.75;;;0.75;;
32934;SDS011;19292;51.532;7.650;2023-03-08T08:31:06;0.80;;;0.80;;
32934;SDS011;19292;51.532;7.650;2023-03-08T08:33:34;0.70;;;0.70;;
32934;SDS011;19292;51.532;7.650;2023-03-08T08:36:01;1.10;;;1.08;;
32934;SDS011;19292;51.532;7.650;2023-03-08T08:38:28;2.00;;;1.90;;
32934;SDS011;19292;51.532;7.650;2023-03-08T08:40:53;1.00;;;1.00;;
32934;SDS011;19292;51.532;7.650;2023-03-08T08:43:18;0.80;;;0.80;;
32934;SDS011;19292;51.532;7.650;2023-03-08T08:45:44;1.85;;;1.75;;
32934;SDS011;19292;51.532;7.650;2023-03-08T08:48:11;1.13;;;1.08;;
32934;SDS011;19292;51.532;7.650;2023-03-08T08:50:40;1.10;;;1.05;;
32934;SDS011;19292;51.532;7.650;2023-03-08T08:53:07;0.60;;;0.60;;
32934;SDS011;19292;51.532;7.650;2023-03-08T08:55:33;2.85;;;1.75;;
32934;SDS011;19292;51.532;7.650;2023-03-08T08:57:58;0.85;;;0.85;;
32934;SDS011;19292;51.532;7.650;2023-03-08T09:00:24;1.15;;;1.15;;
32934;SDS011;19292;51.532;7.650;2023-03-08T09:02:50;0.90;;;0.90;;
32934;SDS011;19292;51.532;7.650;2023-03-08T09:05:15;0.80;;;0.80;;
32934;SDS011;19292;51.532;7.650;2023-03-08T09:07:40;0.80;;;0.80;;
32934;SDS011;19292;51.532;7.650;2023-03-08T09:10:06;1.10;;;1.10;;
32934;SDS011;19292;51.532;7.650;2023-03-08T09:12:32;0.82;;;0.82;;
32934;SDS011;19292;51.532;7.650;2023-03-08T09:14:58;1.10;;;1.10;;
32934;SDS011;19292;51.532;7.650;2023-03-08T09:17:23;1.05;;;1.05;;
32934;SDS011;19292;51.532;7.650;2023-03-08T09:19:49;0.70;;;0.70;;
32934;SDS011;19292;51.532;7.650;2023-03-08T09:22:14;0.93;;;0.93;;
32934;SDS011;19292;51.532;7.650;2023-03-08T09:24:40;0.90;;;0.90;;
32934;SDS011;19292;51.532;7.650;2023-03-08T09:27:05;1.30;;;1.20;;
32934;SDS011;19292;51.532;7.650;2023-03-08T09:29:31;1.00;;;1.00;;
32934;SDS011;19292;51.532;7.650;2023-03-08T09:31:57;1.00;;;1.00;;
32934;SDS011;19292;51.532;7.650;2023-03-08T09:34:23;1.17;;;1.17;;
32934;SDS011;19292;51.532;7.650;2023-03-08T09:36:48;0.80;;;0.80;;
32934;SDS011;19292;51.532;7.650;2023-03-08T09:39:14;1.10;;;1.10;;
32934;SDS011;19292;51.532;7.650;2023-03-08T09:46:52;1.50;;;1.40;;
32934;SDS011;19292;51.532;7.650;2023-03-08T09:49:21;0.80;;;0.80;;
32934;SDS011;19292;51.532;7.650;2023-03-08T09:51:56;0.82;;;0.82;;
32934;SDS011;19292;51.532;7.650;2023-03-08T09:54:27;1.00;;;1.00;;
32934;SDS011;19292;51.532;7.650;2023-03-08T09:56:52;0.90;;;0.90;;
32934;SDS011;19292;51.532;7.650;2023-03-08T09:59:22;0.80;;;0.80;;
32934;SDS011;19292;51.532;7.650;2023-03-08T10:10:01;0.80;;;0.80;;
32934;SDS011;19292;51.532;7.650;2023-03-08T10:15:10;0.90;;;0.90;;
32934;SDS011;19292;51.532;7.650;2023-03-08T10:17:41;0.80;;;0.80;;
32934;SDS011;19292;51.532;7.650;2023-03-08T10:20:21;1.00;;;1.00;;
32934;SDS011;19292;51.532;7.650;2023-03-08T10:22:52;1.00;;;1.00;;
32934;SDS011;19292;51.532;7.650;2023-03-08T10:25:28;0.80;;;0.80;;
32934;SDS011;19292;51.532;7.650;2023-03-08T10:27:56;1.13;;;1.13;;
32934;SDS011;19292;51.532;7.650;2023-03-08T10:30:24;1.00;;;1.00;;
32934;SDS011;19292;51.532;7.650;2023-03-08T10:32:54;0.93;;;0.93;;
32934;SDS011;19292;51.532;7.650;2023-03-08T10:35:33;0.90;;;0.90;;
32934;SDS011;19292;51.532;7.650;2023-03-08T10:38:02;0.70;;;0.70;;
32934;SDS011;19292;51.532;7.650;2023-03-08T10:40:28;1.00;;;1.00;;
32934;SDS011;19292;51.532;7.650;2023-03-08T10:42:55;1.00;;;1.00;;
32934;SDS011;19292;51.532;7.650;2023-03-08T10:45:27;1.10;;;1.10;;
32934;SDS011;19292;51.532;7.650;2023-03-08T10:47:57;1.17;;;1.17;;
32934;SDS011;19292;51.532;7.650;2023-03-08T10:50:25;2.40;;;1.20;;
32934;SDS011;19292;51.532;7.650;2023-03-08T10:52:52;0.98;;;0.98;;
32934;SDS011;19292;51.532;7.650;2023-03-08T10:55:22;1.00;;;1.00;;
32934;SDS011;19292;51.532;7.650;2023-03-08T10:57:54;0.90;;;0.90;;
32934;SDS011;19292;51.532;7.650;2023-03-08T11:00:38;0.98;;;0.98;;
32934;SDS011;19292;51.532;7.650;2023-03-08T11:03:12;0.93;;;0.93;;
32934;SDS011;19292;51.532;7.650;2023-03-08T11:08:33;1.10;;;1.10;;
32934;SDS011;19292;51.532;7.650;2023-03-08T11:13:30;1.55;;;1.45;;
32934;SDS011;19292;51.532;7.650;2023-03-08T11:38:34;1.15;;;1.15;;
32934;SDS011;19292;51.532;7.650;2023-03-08T11:57:04;1.40;;;1.38;;
32934;SDS011;19292;51.532;7.650;2023-03-08T11:59:38;1.00;;;1.00;;
32934;SDS011;19292;51.532;7.650;2023-03-08T12:02:24;1.50;;;1.50;;
32934;SDS011;19292;51.532;7.650;2023-03-08T12:07:36;0.80;;;0.80;;
32934;SDS011;19292;51.532;7.650;2023-03-08T12:10:18;1.00;;;1.00;;
32934;SDS011;19292;51.532;7.650;2023-03-08T12:13:10;1.10;;;1.10;;
32934;SDS011;19292;51.532;7.650;2023-03-08T12:29:44;1.27;;;1.17;;
32934;SDS011;19292;51.532;7.650;2023-03-08T12:32:24;1.10;;;1.10;;
32934;SDS011;19292;51.532;7.650;2023-03-08T12:34:59;1.40;;;1.40;;
32934;SDS011;19292;51.532;7.650;2023-03-08T12:37:53;0.80;;;0.80;;
32934;SDS011;19292;51.532;7.650;2023-03-08T12:43:12;1.17;;;1.17;;
32934;SDS011;19292;51.532;7.650;2023-03-08T12:45:39;1.52;;;1.52;;
32934;SDS011;19292;51.532;7.650;2023-03-08T12:50:43;1.08;;;1.08;;
32934;SDS011;19292;51.532;7.650;2023-03-08T12:53:35;1.45;;;1.35;;
32934;SDS011;19292;51.532;7.650;2023-03-08T12:58:35;1.05;;;1.05;;
32934;SDS011;19292;51.532;7.650;2023-03-08T13:01:03;1.42;;;1.42;;
32934;SDS011;19292;51.532;7.650;2023-03-08T13:03:40;1.50;;;1.40;;
32934;SDS011;19292;51.532;7.650;2023-03-08T13:09:14;0.95;;;0.95;;
32934;SDS011;19292;51.532;7.650;2023-03-08T13:11:46;1.02;;;1.02;;
32934;SDS011;19292;51.532;7.650;2023-03-08T13:14:25;1.13;;;1.13;;
32934;SDS011;19292;51.532;7.650;2023-03-08T13:16:52;1.20;;;1.20;;
32934;SDS011;19292;51.532;7.650;2023-03-08T13:19:28;2.28;;;1.58;;
32934;SDS011;19292;51.532;7.650;2023-03-08T13:24:39;1.50;;;1.50;;
32934;SDS011;19292;51.532;7.650;2023-03-08T13:29:35;1.08;;;1.08;;
32934;SDS011;19292;51.532;7.650;2023-03-08T13:32:04;1.40;;;1.40;;
32934;SDS011;19292;51.532;7.650;2023-03-08T13:34:34;1.55;;;1.33;;
32934;SDS011;19292;51.532;7.650;2023-03-08T13:37:00;1.55;;;1.45;;
32934;SDS011;19292;51.532;7.650;2023-03-08T13:39:29;2.08;;;1.88;;
32934;SDS011;19292;51.532;7.650;2023-03-08T13:42:09;2.05;;;1.77;;
32934;SDS011;19292;51.532;7.650;2023-03-08T13:44:35;1.30;;;1.20;;
32934;SDS011;19292;51.532;7.650;2023-03-08T13:47:02;1.73;;;1.63;;
32934;SDS011;19292;51.532;7.650;2023-03-08T13:49:36;1.10;;;1.10;;
32934;SDS011;19292;51.532;7.650;2023-03-08T13:52:03;1.83;;;1.73;;
32934;SDS011;19292;51.532;7.650;2023-03-08T13:54:36;1.27;;;1.27;;
32934;SDS011;19292;51.532;7.650;2023-03-08T13:57:06;2.38;;;2.28;;
32934;SDS011;19292;51.532;7.650;2023-03-08T13:59:46;1.08;;;1.08;;
32934;SDS011;19292;51.532;7.650;2023-03-08T14:02:17;1.85;;;1.75;;
32934;SDS011;19292;51.532;7.650;2023-03-08T14:04:45;2.40;;;2.10;;
32934;SDS011;19292;51.532;7.650;2023-03-08T14:07:15;1.70;;;1.42;;
32934;SDS011;19292;51.532;7.650;2023-03-08T14:09:52;2.10;;;2.00;;
32934;SDS011;19292;51.532;7.650;2023-03-08T14:12:19;1.70;;;1.60;;
32934;SDS011;19292;51.532;7.650;2023-03-08T14:14:50;1.30;;;1.30;;
32934;SDS011;19292;51.532;7.650;2023-03-08T14:17:19;1.45;;;1.42;;
32934;SDS011;19292;51.532;7.650;2023-03-08T14:19:51;1.25;;;1.25;;
32934;SDS011;19292;51.532;7.650;2023-03-08T14:22:17;1.40;;;1.30;;
32934;SDS011;19292;51.532;7.650;2023-03-08T14:24:48;1.33;;;1.33;;
32934;SDS011;19292;51.532;7.650;2023-03-08T14:29:41;2.25;;;2.15;;
32934;SDS011;19292;51.532;7.650;2023-03-08T14:34:45;1.77;;;1.67;;
32934;SDS011;19292;51.532;7.650;2023-03-08T14:37:27;1.88;;;1.65;;
32934;SDS011;19292;51.532;7.650;2023-03-08T14:39:55;4.72;;;2.15;;
32934;SDS011;19292;51.532;7.650;2023-03-08T14:42:47;1.73;;;1.73;;
32934;SDS011;19292;51.532;7.650;2023-03-08T14:47:54;2.20;;;1.75;;
32934;SDS011;19292;51.532;7.650;2023-03-08T14:50:23;2.00;;;1.88;;
32934;SDS011;19292;51.532;7.650;2023-03-08T14:52:57;2.38;;;2.17;;
32934;SDS011;19292;51.532;7.650;2023-03-08T14:55:26;2.75;;;2.55;;
32934;SDS011;19292;51.532;7.650;2023-03-08T14:57:54;1.17;;;1.17;;
32934;SDS011;19292;51.532;7.650;2023-03-08T15:00:22;2.55;;;2.38;;
32934;SDS011;19292;51.532;7.650;2023-03-08T15:02:47;1.70;;;1.70;;
32934;SDS011;19292;51.532;7.650;2023-03-08T15:05:14;3.85;;;3.58;;
32934;SDS011;19292;51.532;7.650;2023-03-08T15:07:40;2.30;;;2.05;;
32934;SDS011;19292;51.532;7.650;2023-03-08T15:10:06;1.17;;;1.17;;
32934;SDS011;19292;51.532;7.650;2023-03-08T15:12:32;1.83;;;1.73;;
32934;SDS011;19292;51.532;7.650;2023-03-08T15:14:58;1.98;;;1.88;;
32934;SDS011;19292;51.532;7.650;2023-03-08T15:17:23;1.52;;;1.50;;
32934;SDS011;19292;51.532;7.650;2023-03-08T15:19:48;3.35;;;2.00;;
32934;SDS011;19292;51.532;7.650;2023-03-08T15:22:14;2.97;;;2.40;;
32934;SDS011;19292;51.532;7.650;2023-03-08T15:24:40;1.63;;;1.50;;
32934;SDS011;19292;51.532;7.650;2023-03-08T15:27:05;1.42;;;1.33;;
32934;SDS011;19292;51.532;7.650;2023-03-08T15:29:32;1.60;;;1.60;;
32934;SDS011;19292;51.532;7.650;2023-03-08T15:31:58;2.00;;;1.90;;
32934;SDS011;19292;51.532;7.650;2023-03-08T15:34:24;1.27;;;1.27;;
32934;SDS011;19292;51.532;7.650;2023-03-08T15:36:50;3.65;;;2.15;;
32934;SDS011;19292;51.532;7.650;2023-03-08T15:39:16;1.10;;;1.10;;
32934;SDS011;19292;51.532;7.650;2023-03-08T15:41:42;2.28;;;1.40;;
32934;SDS011;19292;51.532;7.650;2023-03-08T15:44:07;1.52;;;1.52;;
32934;SDS011;19292;51.532;7.650;2023-03-08T15:46:33;1.45;;;1.42;;
32934;SDS011;19292;51.532;7.650;2023-03-08T15:48:59;1.73;;;1.65;;
32934;SDS011;19292;51.532;7.650;2023-03-08T15:51:30;1.05;;;1.05;;
32934;SDS011;19292;51.532;7.650;2023-03-08T15:53:57;1.40;;;1.38;;
32934;SDS011;19292;51.532;7.650;2023-03-08T15:56:22;1.20;;;1.20;;
32934;SDS011;19292;51.532;7.650;2023-03-08T15:58:49;1.65;;;1.25;;
32934;SDS011;19292;51.532;7.650;2023-03-08T16:01:15;0.98;;;0.98;;
32934;SDS011;19292;51.532;7.650;2023-03-08T16:03:40;1.27;;;1.27;;
32934;SDS011;19292;51.532;7.650;2023-03-08T16:06:09;1.27;;;1.20;;
32934;SDS011;19292;51.532;7.650;2023-03-08T16:08:36;1.40;;;1.40;;
32934;SDS011;19292;51.532;7.650;2023-03-08T16:11:08;0.80;;;0.80;;
32934;SDS011;19292;51.532;7.650;2023-03-08T16:13:34;1.73;;;1.63;;
32934;SDS011;19292;51.532;7.650;2023-03-08T16:16:00;1.45;;;1.45;;
32934;SDS011;19292;51.532;7.650;2023-03-08T16:18:27;2.13;;;2.03;;
32934;SDS011;19292;51.532;7.650;2023-03-08T16:20:53;1.10;;;1.10;;
32934;SDS011;19292;51.532;7.650;2023-03-08T16:23:19;1.85;;;1.75;;
32934;SDS011;19292;51.532;7.650;2023-03-08T16:25:44;1.55;;;1.55;;
32934;SDS011;19292;51.532;7.650;2023-03-08T16:28:10;1.98;;;1.88;;
32934;SDS011;19292;51.532;7.650;2023-03-08T16:30:35;1.70;;;1.60;;
32934;SDS011;19292;51.532;7.650;2023-03-08T16:33:03;1.77;;;1.67;;
32934;SDS011;19292;51.532;7.650;2023-03-08T16:35:29;1.30;;;1.30;;